Weather at Tallinup-Augusta Airport

Public forecast

Using degrees Celsius for public forecast. Weather courtesy of forecast.io.

Closest aviation weather report (METAR) to Tallinup-Augusta Airport

Closest report is Albany Airport, 136.1 nm (252.1 km) ESE. Retrieved 2020/11/30 00:18 UTC (0 seconds ago):

YABA 300018Z AUTO 25013KT 9999 // SCT022 SCT040 SCT050 10/08 Q1008

Closest aviation forecast (TAF) to Tallinup-Augusta Airport

Forecast is more than 6 hours old.

Closest forecast is Busselton Regional Airport, 40.3 nm (74.7 km) NNE. Retrieved 2020/11/29 18:00 UTC (6 hours ago):

TAF YBLN 291710Z 2918/3018 24010KT 9999 -SHRA BKN025 FM291900 23012KT 9999 -SHRA SCT030 BKN050 FM300100 23018G28KT 9999 NSW SCT050 FM301000 20010KT 9999 SCT050 INTER 2918/2919 26020G30KT 3000 SHRA BKN015 INTER 2919/3000 24015G25KT 5000 SHRA SCT025